sensor_id;sensor_type;location;lat;lon;timestamp;P1;durP1;ratioP1;P2;durP2;ratioP2
3811;SDS011;1921;49.368;11.068;2023-04-16T00:02:19;55.77;;;49.93;;
3811;SDS011;1921;49.368;11.068;2023-04-16T00:04:48;54.43;;;48.93;;
3811;SDS011;1921;49.368;11.068;2023-04-16T00:07:17;52.90;;;47.57;;
3811;SDS011;1921;49.368;11.068;2023-04-16T00:09:43;58.13;;;49.40;;
3811;SDS011;1921;49.368;11.068;2023-04-16T00:12:08;58.97;;;50.60;;
3811;SDS011;1921;49.368;11.068;2023-04-16T00:14:34;59.73;;;50.37;;
3811;SDS011;1921;49.368;11.068;2023-04-16T00:17:00;58.67;;;50.10;;
3811;SDS011;1921;49.368;11.068;2023-04-16T00:19:26;57.53;;;51.00;;
3811;SDS011;1921;49.368;11.068;2023-04-16T00:21:52;60.73;;;50.07;;
3811;SDS011;1921;49.368;11.068;2023-04-16T00:24:17;55.50;;;49.60;;
3811;SDS011;1921;49.368;11.068;2023-04-16T00:26:43;55.37;;;49.30;;
3811;SDS011;1921;49.368;11.068;2023-04-16T00:29:10;55.13;;;49.13;;
3811;SDS011;1921;49.368;11.068;2023-04-16T00:31:36;60.07;;;49.93;;
3811;SDS011;1921;49.368;11.068;2023-04-16T00:34:02;59.43;;;50.03;;
3811;SDS011;1921;49.368;11.068;2023-04-16T00:36:28;55.17;;;49.20;;
3811;SDS011;1921;49.368;11.068;2023-04-16T00:38:54;54.73;;;48.90;;
3811;SDS011;1921;49.368;11.068;2023-04-16T00:41:21;58.20;;;50.17;;
3811;SDS011;1921;49.368;11.068;2023-04-16T00:43:47;56.47;;;49.73;;
3811;SDS011;1921;49.368;11.068;2023-04-16T00:46:14;54.70;;;48.60;;
3811;SDS011;1921;49.368;11.068;2023-04-16T00:48:40;55.50;;;49.00;;
3811;SDS011;1921;49.368;11.068;2023-04-16T00:51:08;57.90;;;50.27;;
3811;SDS011;1921;49.368;11.068;2023-04-16T00:53:34;59.97;;;49.70;;
3811;SDS011;1921;49.368;11.068;2023-04-16T00:56:01;55.57;;;49.00;;
3811;SDS011;1921;49.368;11.068;2023-04-16T00:58:29;62.40;;;50.23;;
3811;SDS011;1921;49.368;11.068;2023-04-16T01:00:55;54.87;;;48.97;;
3811;SDS011;1921;49.368;11.068;2023-04-16T01:03:21;58.40;;;50.00;;
3811;SDS011;1921;49.368;11.068;2023-04-16T01:05:49;56.43;;;50.23;;
3811;SDS011;1921;49.368;11.068;2023-04-16T01:08:19;62.70;;;49.73;;
3811;SDS011;1921;49.368;11.068;2023-04-16T01:10:45;56.53;;;49.70;;
3811;SDS011;1921;49.368;11.068;2023-04-16T01:13:11;59.07;;;49.37;;
3811;SDS011;1921;49.368;11.068;2023-04-16T01:15:37;55.27;;;48.97;;
3811;SDS011;1921;49.368;11.068;2023-04-16T01:18:13;56.67;;;50.47;;
3811;SDS011;1921;49.368;11.068;2023-04-16T01:20:44;62.27;;;49.87;;
3811;SDS011;1921;49.368;11.068;2023-04-16T01:23:11;54.93;;;49.00;;
3811;SDS011;1921;49.368;11.068;2023-04-16T01:25:37;56.00;;;48.90;;
3811;SDS011;1921;49.368;11.068;2023-04-16T01:28:03;57.47;;;49.90;;
3811;SDS011;1921;49.368;11.068;2023-04-16T01:30:30;60.47;;;49.63;;
3811;SDS011;1921;49.368;11.068;2023-04-16T01:32:55;57.10;;;48.80;;
3811;SDS011;1921;49.368;11.068;2023-04-16T01:35:23;59.77;;;49.60;;
3811;SDS011;1921;49.368;11.068;2023-04-16T01:37:50;56.00;;;49.87;;
3811;SDS011;1921;49.368;11.068;2023-04-16T01:40:16;63.33;;;48.50;;
3811;SDS011;1921;49.368;11.068;2023-04-16T01:42:43;58.10;;;49.40;;
3811;SDS011;1921;49.368;11.068;2023-04-16T01:45:09;57.60;;;49.73;;
3811;SDS011;1921;49.368;11.068;2023-04-16T01:47:35;54.60;;;48.50;;
3811;SDS011;1921;49.368;11.068;2023-04-16T01:50:01;58.13;;;49.13;;
3811;SDS011;1921;49.368;11.068;2023-04-16T01:52:28;61.90;;;49.43;;
3811;SDS011;1921;49.368;11.068;2023-04-16T01:54:54;57.73;;;49.10;;
3811;SDS011;1921;49.368;11.068;2023-04-16T01:57:20;57.87;;;49.93;;
3811;SDS011;1921;49.368;11.068;2023-04-16T01:59:46;63.17;;;49.80;;
3811;SDS011;1921;49.368;11.068;2023-04-16T02:02:12;57.57;;;49.00;;
3811;SDS011;1921;49.368;11.068;2023-04-16T02:04:40;61.50;;;48.60;;
3811;SDS011;1921;49.368;11.068;2023-04-16T02:07:09;54.20;;;48.33;;
3811;SDS011;1921;49.368;11.068;2023-04-16T02:09:36;56.87;;;48.77;;
3811;SDS011;1921;49.368;11.068;2023-04-16T02:12:04;61.57;;;49.23;;
3811;SDS011;1921;49.368;11.068;2023-04-16T02:14:30;58.27;;;49.30;;
3811;SDS011;1921;49.368;11.068;2023-04-16T02:16:57;57.10;;;48.90;;
3811;SDS011;1921;49.368;11.068;2023-04-16T02:19:23;54.50;;;48.70;;
3811;SDS011;1921;49.368;11.068;2023-04-16T02:21:52;54.97;;;49.03;;
3811;SDS011;1921;49.368;11.068;2023-04-16T02:24:19;56.37;;;48.20;;
3811;SDS011;1921;49.368;11.068;2023-04-16T02:26:45;59.87;;;49.27;;
3811;SDS011;1921;49.368;11.068;2023-04-16T02:29:12;55.30;;;48.03;;
3811;SDS011;1921;49.368;11.068;2023-04-16T02:31:38;55.60;;;48.77;;
3811;SDS011;1921;49.368;11.068;2023-04-16T02:34:04;54.60;;;48.60;;
3811;SDS011;1921;49.368;11.068;2023-04-16T02:36:30;66.83;;;49.70;;
3811;SDS011;1921;49.368;11.068;2023-04-16T02:38:57;59.43;;;48.50;;
3811;SDS011;1921;49.368;11.068;2023-04-16T02:41:23;53.60;;;47.90;;
3811;SDS011;1921;49.368;11.068;2023-04-16T02:43:49;62.83;;;50.07;;
3811;SDS011;1921;49.368;11.068;2023-04-16T02:46:15;55.47;;;48.30;;
3811;SDS011;1921;49.368;11.068;2023-04-16T02:48:40;58.80;;;49.57;;
3811;SDS011;1921;49.368;11.068;2023-04-16T02:51:06;56.13;;;48.87;;
3811;SDS011;1921;49.368;11.068;2023-04-16T02:53:32;55.20;;;48.40;;
3811;SDS011;1921;49.368;11.068;2023-04-16T02:55:57;54.57;;;48.47;;
3811;SDS011;1921;49.368;11.068;2023-04-16T02:58:24;61.57;;;48.90;;
3811;SDS011;1921;49.368;11.068;2023-04-16T03:00:51;59.17;;;49.00;;
3811;SDS011;1921;49.368;11.068;2023-04-16T03:03:18;59.37;;;48.83;;
3811;SDS011;1921;49.368;11.068;2023-04-16T03:05:44;58.70;;;49.10;;
3811;SDS011;1921;49.368;11.068;2023-04-16T03:08:11;54.27;;;48.37;;
3811;SDS011;1921;49.368;11.068;2023-04-16T03:10:37;53.73;;;47.93;;
3811;SDS011;1921;49.368;11.068;2023-04-16T03:13:03;56.17;;;48.27;;
3811;SDS011;1921;49.368;11.068;2023-04-16T03:15:29;54.87;;;48.87;;
3811;SDS011;1921;49.368;11.068;2023-04-16T03:17:55;57.70;;;49.20;;
3811;SDS011;1921;49.368;11.068;2023-04-16T03:20:21;56.13;;;48.90;;
3811;SDS011;1921;49.368;11.068;2023-04-16T03:22:48;62.60;;;49.33;;
3811;SDS011;1921;49.368;11.068;2023-04-16T03:25:16;54.93;;;48.90;;
3811;SDS011;1921;49.368;11.068;2023-04-16T03:27:42;59.43;;;48.83;;
3811;SDS011;1921;49.368;11.068;2023-04-16T03:30:11;58.80;;;48.60;;
3811;SDS011;1921;49.368;11.068;2023-04-16T03:32:38;62.40;;;49.07;;
3811;SDS011;1921;49.368;11.068;2023-04-16T03:35:04;62.57;;;49.03;;
3811;SDS011;1921;49.368;11.068;2023-04-16T03:37:31;61.67;;;49.23;;
3811;SDS011;1921;49.368;11.068;2023-04-16T03:39:57;58.53;;;48.20;;
3811;SDS011;1921;49.368;11.068;2023-04-16T03:42:23;60.17;;;48.83;;
3811;SDS011;1921;49.368;11.068;2023-04-16T03:44:49;62.83;;;49.47;;
3811;SDS011;1921;49.368;11.068;2023-04-16T03:47:16;56.47;;;48.60;;
3811;SDS011;1921;49.368;11.068;2023-04-16T03:49:42;57.80;;;49.50;;
3811;SDS011;1921;49.368;11.068;2023-04-16T03:52:08;56.97;;;49.17;;
3811;SDS011;1921;49.368;11.068;2023-04-16T03:54:35;58.80;;;49.27;;
3811;SDS011;1921;49.368;11.068;2023-04-16T03:57:03;57.10;;;48.90;;
3811;SDS011;1921;49.368;11.068;2023-04-16T03:59:29;56.40;;;48.60;;
3811;SDS011;1921;49.368;11.068;2023-04-16T04:01:55;59.63;;;49.87;;
3811;SDS011;1921;49.368;11.068;2023-04-16T04:04:21;64.07;;;50.30;;
3811;SDS011;1921;49.368;11.068;2023-04-16T04:06:47;56.50;;;49.03;;
3811;SDS011;1921;49.368;11.068;2023-04-16T04:09:12;60.43;;;49.20;;
3811;SDS011;1921;49.368;11.068;2023-04-16T04:11:40;55.27;;;48.67;;
3811;SDS011;1921;49.368;11.068;2023-04-16T04:14:06;58.60;;;50.33;;
3811;SDS011;1921;49.368;11.068;2023-04-16T04:16:32;65.93;;;49.23;;
3811;SDS011;1921;49.368;11.068;2023-04-16T04:18:58;68.40;;;50.90;;
3811;SDS011;1921;49.368;11.068;2023-04-16T04:21:24;66.23;;;50.20;;
3811;SDS011;1921;49.368;11.068;2023-04-16T04:23:52;59.20;;;48.67;;
3811;SDS011;1921;49.368;11.068;2023-04-16T04:26:18;78.20;;;50.07;;
3811;SDS011;1921;49.368;11.068;2023-04-16T04:28:43;62.73;;;50.23;;
3811;SDS011;1921;49.368;11.068;2023-04-16T04:31:09;60.63;;;50.00;;
3811;SDS011;1921;49.368;11.068;2023-04-16T04:33:35;62.77;;;49.63;;
3811;SDS011;1921;49.368;11.068;2023-04-16T04:36:01;64.63;;;50.07;;
3811;SDS011;1921;49.368;11.068;2023-04-16T04:38:26;64.67;;;50.07;;
3811;SDS011;1921;49.368;11.068;2023-04-16T04:40:54;58.27;;;48.90;;
3811;SDS011;1921;49.368;11.068;2023-04-16T04:43:20;57.37;;;49.20;;
3811;SDS011;1921;49.368;11.068;2023-04-16T04:45:46;59.73;;;49.73;;
3811;SDS011;1921;49.368;11.068;2023-04-16T04:48:13;59.20;;;49.23;;
3811;SDS011;1921;49.368;11.068;2023-04-16T04:50:39;59.20;;;50.40;;
3811;SDS011;1921;49.368;11.068;2023-04-16T04:53:06;64.10;;;50.33;;
3811;SDS011;1921;49.368;11.068;2023-04-16T04:55:40;67.37;;;50.00;;
3811;SDS011;1921;49.368;11.068;2023-04-16T04:58:06;62.97;;;50.57;;
3811;SDS011;1921;49.368;11.068;2023-04-16T05:00:32;70.30;;;50.60;;
3811;SDS011;1921;49.368;11.068;2023-04-16T05:03:03;61.73;;;49.67;;
3811;SDS011;1921;49.368;11.068;2023-04-16T05:05:33;61.40;;;49.13;;
3811;SDS011;1921;49.368;11.068;2023-04-16T05:07:59;57.13;;;49.43;;
3811;SDS011;1921;49.368;11.068;2023-04-16T05:10:25;59.80;;;49.60;;
3811;SDS011;1921;49.368;11.068;2023-04-16T05:12:52;62.70;;;49.60;;
3811;SDS011;1921;49.368;11.068;2023-04-16T05:15:17;62.63;;;50.57;;
3811;SDS011;1921;49.368;11.068;2023-04-16T05:17:43;68.30;;;50.03;;
3811;SDS011;1921;49.368;11.068;2023-04-16T05:20:09;70.50;;;50.00;;
3811;SDS011;1921;49.368;11.068;2023-04-16T05:22:35;59.70;;;50.30;;
3811;SDS011;1921;49.368;11.068;2023-04-16T05:25:01;68.10;;;50.67;;
3811;SDS011;1921;49.368;11.068;2023-04-16T05:27:28;58.87;;;49.70;;
3811;SDS011;1921;49.368;11.068;2023-04-16T05:29:54;58.73;;;49.30;;
3811;SDS011;1921;49.368;11.068;2023-04-16T05:32:19;57.27;;;49.63;;
3811;SDS011;1921;49.368;11.068;2023-04-16T05:34:45;64.27;;;49.83;;
3811;SDS011;1921;49.368;11.068;2023-04-16T05:37:11;63.57;;;49.30;;
3811;SDS011;1921;49.368;11.068;2023-04-16T05:39:37;54.27;;;48.10;;
3811;SDS011;1921;49.368;11.068;2023-04-16T05:42:02;62.37;;;49.60;;
3811;SDS011;1921;49.368;11.068;2023-04-16T05:44:28;58.80;;;49.23;;
3811;SDS011;1921;49.368;11.068;2023-04-16T05:46:54;56.00;;;48.80;;
3811;SDS011;1921;49.368;11.068;2023-04-16T05:49:20;53.37;;;47.70;;
3811;SDS011;1921;49.368;11.068;2023-04-16T05:51:46;53.10;;;47.43;;
3811;SDS011;1921;49.368;11.068;2023-04-16T05:54:12;54.60;;;48.83;;
3811;SDS011;1921;49.368;11.068;2023-04-16T05:56:38;53.20;;;47.47;;
3811;SDS011;1921;49.368;11.068;2023-04-16T05:59:05;53.90;;;48.10;;
3811;SDS011;1921;49.368;11.068;2023-04-16T06:01:31;55.20;;;48.17;;
3811;SDS011;1921;49.368;11.068;2023-04-16T06:03:57;54.70;;;48.43;;
3811;SDS011;1921;49.368;11.068;2023-04-16T06:06:22;53.73;;;47.70;;
3811;SDS011;1921;49.368;11.068;2023-04-16T06:08:50;61.03;;;47.70;;
3811;SDS011;1921;49.368;11.068;2023-04-16T06:11:16;52.53;;;47.23;;
3811;SDS011;1921;49.368;11.068;2023-04-16T06:13:42;52.53;;;47.03;;
3811;SDS011;1921;49.368;11.068;2023-04-16T06:16:08;51.83;;;46.70;;
3811;SDS011;1921;49.368;11.068;2023-04-16T06:18:34;53.27;;;47.77;;
3811;SDS011;1921;49.368;11.068;2023-04-16T06:21:00;52.03;;;46.73;;
3811;SDS011;1921;49.368;11.068;2023-04-16T06:23:30;53.33;;;47.83;;
3811;SDS011;1921;49.368;11.068;2023-04-16T06:25:56;52.80;;;47.50;;
3811;SDS011;1921;49.368;11.068;2023-04-16T06:28:22;53.87;;;48.23;;
3811;SDS011;1921;49.368;11.068;2023-04-16T06:30:47;52.37;;;46.97;;
3811;SDS011;1921;49.368;11.068;2023-04-16T06:33:13;52.23;;;46.93;;
3811;SDS011;1921;49.368;11.068;2023-04-16T06:35:39;52.77;;;47.33;;
3811;SDS011;1921;49.368;11.068;2023-04-16T06:38:05;53.17;;;47.77;;
3811;SDS011;1921;49.368;11.068;2023-04-16T06:40:31;52.10;;;46.90;;
3811;SDS011;1921;49.368;11.068;2023-04-16T06:42:56;53.03;;;47.57;;
3811;SDS011;1921;49.368;11.068;2023-04-16T06:45:22;52.83;;;47.50;;
3811;SDS011;1921;49.368;11.068;2023-04-16T06:47:48;52.87;;;47.37;;
3811;SDS011;1921;49.368;11.068;2023-04-16T06:50:15;53.30;;;47.97;;
3811;SDS011;1921;49.368;11.068;2023-04-16T06:52:40;53.80;;;48.10;;
3811;SDS011;1921;49.368;11.068;2023-04-16T06:55:06;52.87;;;47.30;;
3811;SDS011;1921;49.368;11.068;2023-04-16T06:57:33;52.73;;;47.43;;
3811;SDS011;1921;49.368;11.068;2023-04-16T07:00:00;53.20;;;47.63;;
3811;SDS011;1921;49.368;11.068;2023-04-16T07:02:28;50.73;;;45.73;;
3811;SDS011;1921;49.368;11.068;2023-04-16T07:04:55;53.17;;;47.73;;
3811;SDS011;1921;49.368;11.068;2023-04-16T07:07:20;52.23;;;47.03;;
3811;SDS011;1921;49.368;11.068;2023-04-16T07:09:46;52.60;;;47.30;;
3811;SDS011;1921;49.368;11.068;2023-04-16T07:12:12;52.97;;;47.60;;
3811;SDS011;1921;49.368;11.068;2023-04-16T07:14:38;53.33;;;47.83;;
3811;SDS011;1921;49.368;11.068;2023-04-16T07:17:03;55.10;;;47.47;;
3811;SDS011;1921;49.368;11.068;2023-04-16T07:19:29;53.60;;;48.10;;
3811;SDS011;1921;49.368;11.068;2023-04-16T07:21:57;51.23;;;46.23;;
3811;SDS011;1921;49.368;11.068;2023-04-16T07:24:23;52.03;;;46.90;;
3811;SDS011;1921;49.368;11.068;2023-04-16T07:26:49;52.10;;;46.70;;
3811;SDS011;1921;49.368;11.068;2023-04-16T07:29:15;52.10;;;46.80;;
3811;SDS011;1921;49.368;11.068;2023-04-16T07:31:41;52.30;;;47.00;;
3811;SDS011;1921;49.368;11.068;2023-04-16T07:34:06;51.83;;;46.60;;
3811;SDS011;1921;49.368;11.068;2023-04-16T07:36:32;52.80;;;47.40;;
3811;SDS011;1921;49.368;11.068;2023-04-16T07:38:58;52.07;;;46.77;;
3811;SDS011;1921;49.368;11.068;2023-04-16T07:41:24;51.90;;;46.60;;
3811;SDS011;1921;49.368;11.068;2023-04-16T07:43:50;52.67;;;47.27;;
3811;SDS011;1921;49.368;11.068;2023-04-16T07:46:15;52.90;;;47.50;;
3811;SDS011;1921;49.368;11.068;2023-04-16T07:48:41;53.13;;;47.53;;
3811;SDS011;1921;49.368;11.068;2023-04-16T07:51:07;51.80;;;46.60;;
3811;SDS011;1921;49.368;11.068;2023-04-16T07:53:33;52.53;;;47.30;;
3811;SDS011;1921;49.368;11.068;2023-04-16T07:55:59;53.77;;;48.20;;
3811;SDS011;1921;49.368;11.068;2023-04-16T07:58:24;53.57;;;47.97;;
3811;SDS011;1921;49.368;11.068;2023-04-16T08:00:50;53.60;;;47.37;;
3811;SDS011;1921;49.368;11.068;2023-04-16T08:03:16;52.73;;;47.33;;
3811;SDS011;1921;49.368;11.068;2023-04-16T08:05:42;53.07;;;47.47;;
3811;SDS011;1921;49.368;11.068;2023-04-16T08:08:07;53.60;;;48.10;;
3811;SDS011;1921;49.368;11.068;2023-04-16T08:10:33;53.67;;;48.10;;
3811;SDS011;1921;49.368;11.068;2023-04-16T08:13:00;52.20;;;46.83;;
3811;SDS011;1921;49.368;11.068;2023-04-16T08:15:26;53.33;;;47.73;;
3811;SDS011;1921;49.368;11.068;2023-04-16T08:17:52;53.90;;;47.67;;
3811;SDS011;1921;49.368;11.068;2023-04-16T08:20:20;146.30;;;53.90;;
3811;SDS011;1921;49.368;11.068;2023-04-16T08:22:47;52.97;;;47.43;;
3811;SDS011;1921;49.368;11.068;2023-04-16T08:25:13;53.17;;;47.57;;
3811;SDS011;1921;49.368;11.068;2023-04-16T08:27:39;53.60;;;48.00;;
3811;SDS011;1921;49.368;11.068;2023-04-16T08:30:06;53.13;;;47.60;;
3811;SDS011;1921;49.368;11.068;2023-04-16T08:32:32;55.43;;;49.40;;
3811;SDS011;1921;49.368;11.068;2023-04-16T08:34:59;55.37;;;49.37;;
3811;SDS011;1921;49.368;11.068;2023-04-16T08:37:25;53.67;;;48.00;;
3811;SDS011;1921;49.368;11.068;2023-04-16T08:39:50;54.13;;;48.40;;
3811;SDS011;1921;49.368;11.068;2023-04-16T08:42:24;53.63;;;47.93;;
3811;SDS011;1921;49.368;11.068;2023-04-16T08:45:08;53.83;;;48.10;;
3811;SDS011;1921;49.368;11.068;2023-04-16T08:47:44;53.60;;;47.90;;
3811;SDS011;1921;49.368;11.068;2023-04-16T08:50:16;54.13;;;48.30;;
3811;SDS011;1921;49.368;11.068;2023-04-16T08:52:50;54.53;;;48.63;;
3811;SDS011;1921;49.368;11.068;2023-04-16T08:55:31;55.60;;;49.27;;
3811;SDS011;1921;49.368;11.068;2023-04-16T08:58:05;57.37;;;49.27;;
3811;SDS011;1921;49.368;11.068;2023-04-16T09:00:38;54.60;;;48.70;;
3811;SDS011;1921;49.368;11.068;2023-04-16T09:03:07;54.90;;;49.00;;
3811;SDS011;1921;49.368;11.068;2023-04-16T09:05:36;54.20;;;48.30;;
3811;SDS011;1921;49.368;11.068;2023-04-16T09:08:04;54.03;;;48.23;;
3811;SDS011;1921;49.368;11.068;2023-04-16T09:10:33;54.10;;;48.20;;
3811;SDS011;1921;49.368;11.068;2023-04-16T09:12:59;54.23;;;48.43;;
3811;SDS011;1921;49.368;11.068;2023-04-16T09:15:25;54.37;;;48.47;;
3811;SDS011;1921;49.368;11.068;2023-04-16T09:17:51;53.93;;;48.13;;
3811;SDS011;1921;49.368;11.068;2023-04-16T09:20:18;54.20;;;48.30;;
3811;SDS011;1921;49.368;11.068;2023-04-16T09:22:44;54.60;;;48.80;;
3811;SDS011;1921;49.368;11.068;2023-04-16T09:25:11;54.77;;;48.77;;
3811;SDS011;1921;49.368;11.068;2023-04-16T09:27:37;54.60;;;48.80;;
3811;SDS011;1921;49.368;11.068;2023-04-16T09:30:22;53.90;;;48.10;;
3811;SDS011;1921;49.368;11.068;2023-04-16T09:32:50;53.80;;;48.10;;
3811;SDS011;1921;49.368;11.068;2023-04-16T09:35:43;55.10;;;49.30;;
3811;SDS011;1921;49.368;11.068;2023-04-16T09:38:11;53.13;;;47.60;;
3811;SDS011;1921;49.368;11.068;2023-04-16T09:40:38;52.20;;;46.80;;
3811;SDS011;1921;49.368;11.068;2023-04-16T09:43:10;56.10;;;47.47;;
3811;SDS011;1921;49.368;11.068;2023-04-16T09:45:48;52.70;;;47.20;;
3811;SDS011;1921;49.368;11.068;2023-04-16T09:48:15;52.53;;;47.13;;
3811;SDS011;1921;49.368;11.068;2023-04-16T09:50:54;52.40;;;47.00;;
3811;SDS011;1921;49.368;11.068;2023-04-16T09:55:59;52.10;;;46.80;;
3811;SDS011;1921;49.368;11.068;2023-04-16T09:58:30;51.70;;;46.50;;
3811;SDS011;1921;49.368;11.068;2023-04-16T10:01:00;52.40;;;47.00;;
3811;SDS011;1921;49.368;11.068;2023-04-16T10:03:32;51.83;;;46.53;;
3811;SDS011;1921;49.368;11.068;2023-04-16T10:06:21;51.30;;;46.10;;
3811;SDS011;1921;49.368;11.068;2023-04-16T10:08:47;51.87;;;46.67;;
3811;SDS011;1921;49.368;11.068;2023-04-16T10:11:15;52.50;;;47.20;;
3811;SDS011;1921;49.368;11.068;2023-04-16T10:13:45;51.53;;;46.27;;
3811;SDS011;1921;49.368;11.068;2023-04-16T10:16:11;52.43;;;47.07;;
3811;SDS011;1921;49.368;11.068;2023-04-16T10:18:38;51.83;;;46.63;;
3811;SDS011;1921;49.368;11.068;2023-04-16T10:21:06;51.40;;;46.20;;
3811;SDS011;1921;49.368;11.068;2023-04-16T10:23:33;51.10;;;46.00;;
3811;SDS011;1921;49.368;11.068;2023-04-16T10:25:59;51.13;;;46.00;;
3811;SDS011;1921;49.368;11.068;2023-04-16T10:28:26;51.43;;;46.23;;
3811;SDS011;1921;49.368;11.068;2023-04-16T10:30:53;51.10;;;46.00;;
3811;SDS011;1921;49.368;11.068;2023-04-16T10:33:24;51.53;;;46.43;;
3811;SDS011;1921;49.368;11.068;2023-04-16T10:36:06;51.50;;;46.23;;
3811;SDS011;1921;49.368;11.068;2023-04-16T10:38:38;53.90;;;48.33;;
3811;SDS011;1921;49.368;11.068;2023-04-16T10:41:16;53.23;;;47.83;;
3811;SDS011;1921;49.368;11.068;2023-04-16T10:43:45;51.40;;;46.20;;
3811;SDS011;1921;49.368;11.068;2023-04-16T10:46:18;51.87;;;46.60;;
3811;SDS011;1921;49.368;11.068;2023-04-16T10:48:55;51.70;;;46.40;;
3811;SDS011;1921;49.368;11.068;2023-04-16T10:51:28;51.83;;;46.57;;
3811;SDS011;1921;49.368;11.068;2023-04-16T10:54:01;51.37;;;46.17;;
3811;SDS011;1921;49.368;11.068;2023-04-16T10:56:30;51.87;;;46.57;;
3811;SDS011;1921;49.368;11.068;2023-04-16T10:58:57;50.60;;;45.57;;
3811;SDS011;1921;49.368;11.068;2023-04-16T11:01:30;51.37;;;46.17;;
3811;SDS011;1921;49.368;11.068;2023-04-16T11:10:25;51.03;;;45.97;;
3811;SDS011;1921;49.368;11.068;2023-04-16T11:12:37;50.70;;;45.60;;
3811;SDS011;1921;49.368;11.068;2023-04-16T11:15:06;51.53;;;46.33;;
3811;SDS011;1921;49.368;11.068;2023-04-16T11:22:55;50.50;;;45.50;;
3811;SDS011;1921;49.368;11.068;2023-04-16T11:25:26;51.50;;;46.30;;
3811;SDS011;1921;49.368;11.068;2023-04-16T11:27:54;50.13;;;45.13;;
3811;SDS011;1921;49.368;11.068;2023-04-16T11:30:55;49.90;;;45.03;;
3811;SDS011;1921;49.368;11.068;2023-04-16T11:33:14;49.60;;;44.80;;
3811;SDS011;1921;49.368;11.068;2023-04-16T11:35:40;50.73;;;45.73;;
3811;SDS011;1921;49.368;11.068;2023-04-16T11:38:07;49.10;;;44.40;;
3811;SDS011;1921;49.368;11.068;2023-04-16T11:40:33;49.33;;;44.53;;
3811;SDS011;1921;49.368;11.068;2023-04-16T11:43:00;50.03;;;45.13;;
3811;SDS011;1921;49.368;11.068;2023-04-16T11:45:39;48.93;;;44.23;;
3811;SDS011;1921;49.368;11.068;2023-04-16T11:48:23;49.73;;;44.83;;
3811;SDS011;1921;49.368;11.068;2023-04-16T11:50:55;49.73;;;44.93;;
3811;SDS011;1921;49.368;11.068;2023-04-16T11:53:22;49.97;;;45.07;;
3811;SDS011;1921;49.368;11.068;2023-04-16T11:55:47;50.30;;;45.30;;
3811;SDS011;1921;49.368;11.068;2023-04-16T11:58:13;50.30;;;45.30;;
3811;SDS011;1921;49.368;11.068;2023-04-16T12:00:44;50.50;;;45.50;;
3811;SDS011;1921;49.368;11.068;2023-04-16T12:03:09;50.20;;;45.20;;
3811;SDS011;1921;49.368;11.068;2023-04-16T12:05:36;50.93;;;45.80;;
3811;SDS011;1921;49.368;11.068;2023-04-16T12:08:04;51.17;;;45.97;;
3811;SDS011;1921;49.368;11.068;2023-04-16T12:10:35;51.70;;;46.40;;
3811;SDS011;1921;49.368;11.068;2023-04-16T12:13:16;51.93;;;46.53;;
3811;SDS011;1921;49.368;11.068;2023-04-16T12:18:10;52.67;;;47.17;;
3811;SDS011;1921;49.368;11.068;2023-04-16T12:20:39;52.67;;;47.13;;
3811;SDS011;1921;49.368;11.068;2023-04-16T12:23:08;53.20;;;47.40;;
3811;SDS011;1921;49.368;11.068;2023-04-16T12:25:35;53.40;;;47.70;;
3811;SDS011;1921;49.368;11.068;2023-04-16T12:28:01;54.03;;;47.50;;
3811;SDS011;1921;49.368;11.068;2023-04-16T12:30:27;54.27;;;48.37;;
3811;SDS011;1921;49.368;11.068;2023-04-16T12:33:14;54.50;;;48.60;;
3811;SDS011;1921;49.368;11.068;2023-04-16T12:35:41;53.10;;;47.50;;
3811;SDS011;1921;49.368;11.068;2023-04-16T12:38:08;53.43;;;47.73;;
3811;SDS011;1921;49.368;11.068;2023-04-16T12:40:34;51.87;;;46.47;;
3811;SDS011;1921;49.368;11.068;2023-04-16T12:43:01;52.23;;;46.83;;
3811;SDS011;1921;49.368;11.068;2023-04-16T12:45:27;52.43;;;47.03;;
3811;SDS011;1921;49.368;11.068;2023-04-16T12:47:52;50.90;;;45.70;;
3811;SDS011;1921;49.368;11.068;2023-04-16T12:50:19;51.27;;;45.87;;
3811;SDS011;1921;49.368;11.068;2023-04-16T12:52:45;51.17;;;45.97;;
3811;SDS011;1921;49.368;11.068;2023-04-16T12:55:13;50.60;;;45.60;;
3811;SDS011;1921;49.368;11.068;2023-04-16T12:57:39;49.80;;;44.90;;
3811;SDS011;1921;49.368;11.068;2023-04-16T13:00:05;49.57;;;44.77;;
3811;SDS011;1921;49.368;11.068;2023-04-16T13:02:32;49.30;;;44.50;;
3811;SDS011;1921;49.368;11.068;2023-04-16T13:04:58;49.97;;;45.07;;
3811;SDS011;1921;49.368;11.068;2023-04-16T13:07:24;50.10;;;45.20;;
3811;SDS011;1921;49.368;11.068;2023-04-16T13:09:51;49.63;;;44.73;;
3811;SDS011;1921;49.368;11.068;2023-04-16T13:12:16;49.80;;;44.80;;
3811;SDS011;1921;49.368;11.068;2023-04-16T13:14:42;49.57;;;44.77;;
3811;SDS011;1921;49.368;11.068;2023-04-16T13:17:09;50.00;;;45.20;;
3811;SDS011;1921;49.368;11.068;2023-04-16T13:19:35;50.30;;;45.40;;
3811;SDS011;1921;49.368;11.068;2023-04-16T13:22:00;50.57;;;45.67;;
3811;SDS011;1921;49.368;11.068;2023-04-16T13:24:26;49.93;;;45.00;;
3811;SDS011;1921;49.368;11.068;2023-04-16T13:26:52;50.40;;;45.50;;
3811;SDS011;1921;49.368;11.068;2023-04-16T13:29:18;49.53;;;44.70;;
3811;SDS011;1921;49.368;11.068;2023-04-16T13:31:45;51.20;;;46.10;;
3811;SDS011;1921;49.368;11.068;2023-04-16T13:34:11;51.67;;;46.47;;
3811;SDS011;1921;49.368;11.068;2023-04-16T13:36:37;51.73;;;46.23;;
3811;SDS011;1921;49.368;11.068;2023-04-16T13:39:02;51.60;;;46.20;;
3811;SDS011;1921;49.368;11.068;2023-04-16T13:41:34;51.60;;;46.33;;
3811;SDS011;1921;49.368;11.068;2023-04-16T13:44:00;52.47;;;46.87;;
3811;SDS011;1921;49.368;11.068;2023-04-16T13:46:26;52.53;;;46.63;;
3811;SDS011;1921;49.368;11.068;2023-04-16T13:48:52;51.77;;;46.37;;
3811;SDS011;1921;49.368;11.068;2023-04-16T13:51:19;51.23;;;46.03;;
3811;SDS011;1921;49.368;11.068;2023-04-16T13:53:45;51.90;;;46.50;;
3811;SDS011;1921;49.368;11.068;2023-04-16T13:56:11;51.83;;;46.53;;
3811;SDS011;1921;49.368;11.068;2023-04-16T13:58:37;52.23;;;46.87;;
3811;SDS011;1921;49.368;11.068;2023-04-16T14:01:03;52.30;;;46.90;;
3811;SDS011;1921;49.368;11.068;2023-04-16T14:03:29;52.37;;;46.87;;
3811;SDS011;1921;49.368;11.068;2023-04-16T14:05:59;52.77;;;47.17;;
3811;SDS011;1921;49.368;11.068;2023-04-16T14:08:26;52.60;;;47.10;;
3811;SDS011;1921;49.368;11.068;2023-04-16T14:10:53;52.77;;;47.27;;
3811;SDS011;1921;49.368;11.068;2023-04-16T14:13:19;52.90;;;47.30;;
3811;SDS011;1921;49.368;11.068;2023-04-16T14:15:45;53.17;;;47.50;;
3811;SDS011;1921;49.368;11.068;2023-04-16T14:18:11;54.00;;;48.20;;
3811;SDS011;1921;49.368;11.068;2023-04-16T14:20:36;53.77;;;48.07;;
3811;SDS011;1921;49.368;11.068;2023-04-16T14:23:03;53.13;;;47.43;;
3811;SDS011;1921;49.368;11.068;2023-04-16T14:25:30;54.13;;;48.23;;
3811;SDS011;1921;49.368;11.068;2023-04-16T14:27:55;59.70;;;47.97;;
3811;SDS011;1921;49.368;11.068;2023-04-16T14:30:23;54.47;;;48.57;;
3811;SDS011;1921;49.368;11.068;2023-04-16T14:32:49;54.30;;;48.40;;
3811;SDS011;1921;49.368;11.068;2023-04-16T14:35:14;54.27;;;48.37;;
3811;SDS011;1921;49.368;11.068;2023-04-16T14:37:40;54.00;;;48.20;;
3811;SDS011;1921;49.368;11.068;2023-04-16T14:40:06;54.03;;;48.20;;
3811;SDS011;1921;49.368;11.068;2023-04-16T14:42:34;53.70;;;47.97;;
3811;SDS011;1921;49.368;11.068;2023-04-16T14:45:03;53.50;;;47.80;;
3811;SDS011;1921;49.368;11.068;2023-04-16T14:47:31;53.33;;;47.63;;
3811;SDS011;1921;49.368;11.068;2023-04-16T14:49:58;53.50;;;47.80;;
3811;SDS011;1921;49.368;11.068;2023-04-16T14:52:24;53.03;;;47.40;;